Flight Track Log - Related Links

Times and Time Zones

All times are in EDT time to prevent confusion due to time zone crossing. See the N913CS flight status page for this flight to view local times or setup timezone preferences in your user account.

Time Position Orientation Groundspeed Altitude Reporting Facility
EDT Latitude Longitude Course Direction KTS MPH feet Rate Location/Type
Mon 08:34:41 AM 41.8333 -91.6556 99° East 229 264 4,400  Level Chicago Center
Mon 08:35:43 AM 41.7642 -91.6517 178° South 256 295 7,700 3,145 Climbing Chicago Center
Mon 08:36:45 AM 41.7253 -91.5642 121° Southeast 284 327 10,900 3,097 Climbing Chicago Center
Mon 08:37:47 AM 41.7133 -91.4500 98° East 304 350 14,100 3,145 Climbing Chicago Center
Mon 08:38:49 AM 41.6978 -91.3061 98° East 323 372 17,400 2,758 Climbing Chicago Center
Mon 08:39:51 AM 41.6822 -91.1756 99° East 348 400 19,800 2,274 Climbing Chicago Center
Mon 08:40:00 AM 41.7735 -90.8328 99° East  Level FlightAware Approximate
Mon 08:40:53 AM 41.6672 -91.0361 98° East 376 433 22,100  Level Chicago Center
Mon 08:41:55 AM 41.6494 -90.8903 99° East 397 457 24,200 2,208 Climbing Chicago Center
Mon 08:42:58 AM 41.6253 -90.7156 100° East 403 464 26,700 2,160 Climbing Chicago Center
Mon 08:44:00 AM 41.5928 -90.5806 108° East 404 465 28,700 1,984 Climbing Chicago Center
Mon 08:45:02 AM 41.5606 -90.4381 107° East 404 465 30,800 1,887 Climbing Chicago Center
Mon 08:46:04 AM 41.5331 -90.2928 104° East 403 464 32,600 1,065 Climbing Chicago Center
Mon 08:47:06 AM 41.5044 -90.1389 104° East 420 483 33,000 194 Climbing Chicago Center
Mon 08:48:08 AM 41.4625 -89.9392 106° East 458 527 33,000 1,113 Level Chicago Center
Mon 08:49:10 AM 41.4292 -89.7733 105° East 461 531 35,300 2,081 Climbing Chicago Center
Mon 08:50:12 AM 41.4125 -89.6172 98° East 428 493 37,300 1,500 Climbing Chicago Center
Mon 08:51:14 AM 41.3933 -89.4628 99° East 425 489 38,400 823 Climbing Chicago Center
Mon 08:52:16 AM 41.3750 -89.3097 99° East 418 481 39,000 290 Climbing Chicago Center
Mon 08:53:18 AM 41.3544 -89.1383 99° East 436 502 39,000  Level Chicago Center
Mon 08:54:20 AM 41.3347 -88.9697 99° East 454 522 39,000  Level Chicago Center
Mon 08:55:22 AM 41.3136 -88.8008 99° East 463 533 39,000  Level Chicago Center
Mon 08:56:24 AM 41.2883 -88.5994 99° East 463 533 39,000  Level Chicago Center
Mon 08:57:26 AM 41.2667 -88.4331 100° East 463 533 39,000  Level Chicago Center
Mon 08:58:28 AM 41.2464 -88.2683 99° East 462 532 39,000  Level Chicago Center
Mon 08:59:30 AM 41.2244 -88.1064 100° East 458 527 39,000  Level Chicago Center
Mon 09:00:31 AM 41.2017 -87.9417 100° East 459 528 39,000  Level Chicago Center
Mon 09:01:33 AM 41.1756 -87.7419 100° East 463 533 39,000  Level Chicago Center
Mon 09:02:36 AM 41.1533 -87.5744 100° East 464 534 39,000  Level Chicago Center
Mon 09:03:37 AM 41.1300 -87.4086 101° East 463 533 39,000  Level Chicago Center
Mon 09:04:39 AM 41.1069 -87.2433 100° East 459 528 39,000  Level Chicago Center
Mon 09:05:41 AM 41.0842 -87.0781 100° East 457 526 39,000  Level Chicago Center
Mon 09:06:43 AM 41.0600 -86.9142 101° East 456 525 39,000  Level Chicago Center
Mon 09:07:45 AM 41.0317 -86.7172 101° East 455 524 39,000  Level Chicago Center
Mon 09:08:47 AM 41.0122 -86.5761 100° East 456 525 39,000  Level Chicago Center
Mon 09:09:49 AM 40.9828 -86.3806 101° East 455 524 39,000  Level Chicago Center
Mon 09:10:51 AM 40.9586 -86.2161 101° East 456 525 39,000  Level Chicago Center
Mon 09:11:53 AM 40.9336 -86.0489 101° East 462 532 39,000  Level Chicago Center
Mon 09:12:55 AM 40.9081 -85.8808 101° East 466 536 39,000  Level Chicago Center
Mon 09:13:57 AM 40.8836 -85.7181 101° East 461 531 39,000  Level Chicago Center
Mon 09:14:58 AM 40.8536 -85.5239 101° East 456 525 39,000  Level Chicago Center
Mon 09:16:00 AM 40.8275 -85.3625 102° East 455 524 39,000  Level Chicago Center
Mon 09:17:02 AM 40.8019 -85.1989 102° East 455 524 39,000  Level Chicago Center
Mon 09:18:04 AM 40.7761 -85.0339 102° East 457 526 39,000  Level Chicago Center
Mon 09:19:06 AM 40.7492 -84.8728 102° East 456 525 39,000  Level Chicago Center
Mon 09:20:09 AM 40.7175 -84.6733 102° East 460 529 39,000  Level Chicago Center
Mon 09:21:11 AM 40.6900 -84.5089 102° East 460 529 39,000  Level Chicago Center
Mon 09:22:27 AM 40.6558 -84.3014 102° East 454 522 39,000  Level Indianapolis Center
Mon 09:23:29 AM 40.6292 -84.1436 103° East 446 513 39,000  Level Indianapolis Center
Mon 09:24:31 AM 40.6025 -83.9842 102° East 446 513 39,000  Level Indianapolis Center
Mon 09:25:33 AM 40.5753 -83.8256 103° East 446 513 39,000  Level Indianapolis Center
Mon 09:26:35 AM 40.5489 -83.6667 102° East 446 513 39,000  Level Indianapolis Center
Mon 09:27:37 AM 40.5208 -83.5064 103° East 446 513 39,000  Level Indianapolis Center
Mon 09:28:39 AM 40.4878 -83.3147 103° East 448 516 39,000  Level Indianapolis Center
Mon 09:29:41 AM 40.4592 -83.1572 103° East 447 514 39,000  Level Indianapolis Center
Mon 09:30:43 AM 40.4306 -82.9981 103° East 447 514 39,000  Level Indianapolis Center
Mon 09:31:45 AM 40.4022 -82.8397 103° East 447 514 39,000  Level Indianapolis Center
Mon 09:32:47 AM 40.3700 -82.6644 104° East 447 514 39,000  Level Indianapolis Center
Mon 09:33:49 AM 40.3408 -82.5036 103° East 447 514 39,000  Level Indianapolis Center
Mon 09:34:51 AM 40.3108 -82.3358 103° East 462 532 39,000  Level Indianapolis Center
Mon 09:35:53 AM 40.2789 -82.1669 104° East 469 540 39,000  Level Indianapolis Center
Mon 09:36:55 AM 40.2461 -81.9944 104° East 477 549 39,000  Level Indianapolis Center
Mon 09:37:42 AM 40.2178 -81.8497 104° East 477 549 39,000  Level Cleveland Center
Mon 09:38:44 AM 40.1889 -81.6975 104° East 474 545 39,000  Level Cleveland Center
Mon 09:39:46 AM 40.1569 -81.5289 104° East 477 549 39,000  Level Cleveland Center
Mon 09:40:48 AM 40.1175 -81.3281 104° East 477 549 39,000  Level Cleveland Center
Mon 09:41:50 AM 40.0850 -81.1583 104° East 481 554 39,000  Level Cleveland Center
Mon 09:42:52 AM 40.0506 -80.9917 105° East 480 552 39,000  Level Cleveland Center
Mon 09:43:54 AM 40.0189 -80.8250 104° East 479 551 39,000  Level Cleveland Center
Mon 09:44:56 AM 39.9844 -80.6581 105° East 480 552 39,000  Level Cleveland Center
Mon 09:45:58 AM 39.9517 -80.4903 104° East 480 552 39,000  Level Cleveland Center
Mon 09:47:00 AM 39.9114 -80.2919 105° East 480 552 39,000 -968 Level Cleveland Center
Mon 09:48:02 AM 39.8769 -80.1278 105° East 478 550 37,000 -2,081 Descending Cleveland Center
Mon 09:49:04 AM 39.8431 -79.9597 105° East 472 543 34,700 -2,177 Descending Cleveland Center
Mon 09:50:06 AM 39.8094 -79.8000 105° East 475 547 32,500 -1,366 Descending Cleveland Center
Mon 09:51:07 AM 39.7764 -79.6386 105° East 470 541 31,900 -1,756 Descending Cleveland Center
Mon 09:52:09 AM 39.7350 -79.4439 105° East 469 540 28,900 -2,661 Descending Cleveland Center
Mon 09:53:11 AM 39.7003 -79.2803 105° East 472 543 26,400 -1,887 Descending Cleveland Center
Mon 09:54:13 AM 39.6656 -79.1156 105° East 473 544 25,000 -726 Descending Cleveland Center
Mon 09:55:15 AM 39.6278 -78.9436 106° East 468 539 24,900 -1,016 Descending Cleveland Center
Mon 09:56:17 AM 39.5942 -78.7836 105° East 461 531 22,900 -2,032 Descending Cleveland Center
Mon 09:57:19 AM 39.5600 -78.6231 105° East 461 531 20,700 -2,177 Descending Cleveland Center
Mon 09:58:21 AM 39.5278 -78.4744 106° East 433 498 18,400 -2,177 Descending Cleveland Center
Mon 09:59:23 AM 39.4950 -78.3331 107° East 415 478 16,200 -1,742 Descending Cleveland Center
Mon 10:00:25 AM 39.4592 -78.1731 106° East 391 450 14,800 -677 Descending Cleveland Center
Mon 10:01:27 AM 39.4292 -78.0417 106° East 384 442 14,800 -581 Level Cleveland Center
Mon 10:02:29 AM 39.4200 -77.9047 95° East 381 438 13,600 -1,500 Descending Cleveland Center
Mon 10:03:31 AM 39.4286 -77.7650 85° East 385 443 11,700 -1,306 Descending Cleveland Center
Mon 10:04:33 AM 39.4344 -77.6408 86° East 357 411 10,900 -387 Descending Cleveland Center
Mon 10:05:35 AM 39.4394 -77.5289 87° East 324 373 10,900  Level Cleveland Center
Mon 10:06:29 AM 39.4500 -77.4167 83° East 319 367 10,900 -526 Level Potomac TRACON
Mon 10:07:29 AM 39.4500 -77.3000 90° East 318 366 9,900 -1,250 Descending Potomac TRACON
Mon 10:08:29 AM 39.4667 -77.2000 78° East 303 349 8,400 -1,579 Descending Potomac TRACON
Mon 10:09:23 AM 39.4667 -77.1000 90° East 281 323 6,900 -1,600 Descending Potomac TRACON
Mon 10:10:29 AM 39.4500 -77.0000 102° East 268 308 5,200 -1,550 Descending Potomac TRACON
Mon 10:11:23 AM 39.4167 -76.9333 123° Southeast 242 278 3,800 -1,333 Descending Potomac TRACON
Mon 10:12:17 AM 39.3833 -76.8667 123° Southeast 210 242 2,800 -632 Descending Potomac TRACON
Mon 10:13:17 AM 39.3500 -76.8167 131° Southeast 180 207 2,600 -99 Descending Potomac TRACON
Mon 10:14:18 AM 39.3167 -76.7833 142° Southeast 184 212 2,600 -198 Level Potomac TRACON
Mon 10:15:18 AM 39.2667 -76.7333 142° Southeast 194 223 2,200 -650 Descending Potomac TRACON
Mon 10:16:18 AM 39.2333 -76.7000 142° Southeast 144 166 1,300 -783 Descending Potomac TRACON
Mon 10:17:13 AM 39.2000 -76.6833 159° South 115 132 700 -655 Descending Potomac TRACON

Login

Don't have an account? Register now (free) for customized features, flight alerts, and more!